Time;durP1;ratioP1;P1;durP2;ratioP2;P2;SDS_P1;SDS_P2;PMS_P1;PMS_P2;Temp;Humidity;BMP_temperature;BMP_pressure;BME280_temperature;BME280_humidity;BME280_pressure;Samples;Min_cycle;Max_cycle;Signal;HPM_P1;HPM_P2
2022/09/22 00:02:12;;;;;;;9.70;4.60;;;;;;;11.21;55.63;98144.59;5037483;28;20222;-72
2022/09/22 00:04:38;;;;;;;8.50;5.50;;;;;;;11.19;55.60;98148.31;5042717;28;20422;-71
2022/09/22 00:07:03;;;;;;;7.80;5.30;;;;;;;11.08;55.88;98133.53;5044454;28;20232;-72
2022/09/22 00:09:29;;;;;;;7.00;4.87;;;;;;;11.10;55.85;98128.97;5034085;28;20182;-71
2022/09/22 00:11:54;;;;;;;6.80;4.20;;;;;;;11.11;55.99;98128.00;5033198;28;20283;-72
2022/09/22 00:14:25;;;;;;;8.47;4.50;;;;;;;11.10;56.35;98130.75;5044790;28;20200;-71
2022/09/22 00:16:53;;;;;;;7.53;4.63;;;;;;;11.13;56.29;98130.50;5039891;28;20643;-70
2022/09/22 00:19:37;;;;;;;5.50;4.40;;;;;;;11.15;56.17;98125.97;5045197;28;20516;-70
2022/09/22 00:22:03;;;;;;;6.03;4.33;;;;;;;11.16;55.91;98131.06;5030327;28;20478;-72
2022/09/22 00:24:30;;;;;;;6.77;4.30;;;;;;;11.13;55.99;98122.63;5036098;28;20456;-70
2022/09/22 00:26:56;;;;;;;5.47;4.37;;;;;;;11.10;55.98;98123.72;5040537;28;20434;-73
2022/09/22 00:29:26;;;;;;;4.40;3.87;;;;;;;11.07;56.11;98124.00;5039025;28;21264;-72
2022/09/22 00:31:51;;;;;;;6.67;4.33;;;;;;;11.04;55.89;98124.25;5032771;28;20512;-72
2022/09/22 00:34:20;;;;;;;6.37;4.53;;;;;;;11.06;55.46;98122.34;5045902;28;20917;-71
2022/09/22 00:36:46;;;;;;;11.10;4.67;;;;;;;10.98;55.70;98122.16;5042197;28;20566;-71
2022/09/22 00:39:12;;;;;;;4.60;3.87;;;;;;;10.94;55.77;98118.97;5036922;28;20422;-71
2022/09/22 00:41:40;;;;;;;7.70;4.03;;;;;;;10.83;56.05;98121.69;5042711;28;20464;-72
2022/09/22 00:44:25;;;;;;;12.23;4.60;;;;;;;10.80;56.28;98112.31;5039681;28;20475;-72
2022/09/22 00:47:27;;;;;;;7.30;4.13;;;;;;;10.84;55.93;98112.88;5044621;28;20405;-70
2022/09/22 00:49:59;;;;;;;6.27;4.10;;;;;;;10.84;56.07;98105.00;5045295;28;20440;-71
2022/09/22 00:52:29;;;;;;;7.90;4.23;;;;;;;10.83;56.13;98101.56;5043757;28;20438;-71
2022/09/22 00:54:57;;;;;;;5.07;4.20;;;;;;;10.82;56.23;98105.13;5036217;28;20419;-71
2022/09/22 00:57:27;;;;;;;5.00;4.20;;;;;;;10.83;56.02;98095.47;5043830;28;20798;-73
2022/09/22 00:59:53;;;;;;;5.57;4.10;;;;;;;10.79;56.12;98100.16;5038270;28;20422;-72
2022/09/22 01:02:19;;;;;;;7.27;4.27;;;;;;;10.79;55.99;98094.91;5044356;28;20889;-70
2022/09/22 01:04:47;;;;;;;5.43;4.03;;;;;;;10.72;56.14;98096.38;5041146;28;20179;-72
2022/09/22 01:07:12;;;;;;;6.87;4.23;;;;;;;10.65;56.27;98097.88;5043021;28;20422;-69
2022/09/22 01:09:38;;;;;;;4.63;3.83;;;;;;;10.66;56.11;98096.91;5028620;28;20420;-71
2022/09/22 01:12:03;;;;;;;4.30;3.90;;;;;;;10.65;56.09;98095.25;5033725;28;20247;-73
2022/09/22 01:14:45;;;;;;;5.50;4.00;;;;;;;10.63;56.29;98095.41;5036895;28;20819;-71
2022/09/22 01:17:23;;;;;;;5.30;4.23;;;;;;;10.56;56.22;98100.31;5036544;28;20183;-70
2022/09/22 01:20:31;;;;;;;7.20;4.20;;;;;;;10.54;56.39;98101.41;5044166;28;20426;-71
2022/09/22 01:23:23;;;;;;;5.53;4.27;;;;;;;10.51;55.90;98112.97;5033184;28;20980;-71
2022/09/22 01:26:23;;;;;;;5.40;4.13;;;;;;;10.51;56.18;98112.97;5035877;28;20571;-71
2022/09/22 01:29:30;;;;;;;5.20;4.27;;;;;;;10.48;56.45;98107.19;5034504;28;20418;-71
2022/09/22 01:32:01;;;;;;;4.50;3.93;;;;;;;10.45;56.27;98105.66;5018669;28;20544;-71
2022/09/22 01:34:44;;;;;;;6.80;4.07;;;;;;;10.39;56.39;98104.38;5043670;28;20422;-71
2022/09/22 01:37:23;;;;;;;6.57;4.30;;;;;;;10.38;56.56;98099.25;5037955;28;20412;-71
2022/09/22 01:40:01;;;;;;;6.07;4.20;;;;;;;10.40;56.65;98099.94;5039283;28;20429;-70
2022/09/22 01:42:50;;;;;;;4.83;4.27;;;;;;;10.39;56.65;98103.53;5037074;28;20579;-72
2022/09/22 01:45:21;;;;;;;6.30;4.03;;;;;;;10.32;56.56;98091.88;5043237;28;20533;-71
2022/09/22 01:47:49;;;;;;;5.03;4.43;;;;;;;10.20;56.76;98091.97;5037794;28;20426;-71
2022/09/22 01:50:19;;;;;;;9.07;4.10;;;;;;;10.18;57.00;98093.88;5043480;28;20414;-71
2022/09/22 01:52:45;;;;;;;5.07;4.20;;;;;;;10.20;57.08;98088.50;5022455;28;20808;-72
2022/09/22 01:55:17;;;;;;;7.40;4.30;;;;;;;10.20;56.99;98093.72;5042296;28;20426;-72
2022/09/22 01:57:56;;;;;;;4.13;3.67;;;;;;;10.10;57.23;98096.28;5030314;28;20425;-73
2022/09/22 02:00:22;;;;;;;10.93;3.80;;;;;;;10.16;56.72;98098.41;5040704;28;20428;-72
2022/09/22 02:03:09;;;;;;;5.30;4.20;;;;;;;10.16;56.65;98103.63;5032320;28;20516;-71
2022/09/22 02:05:42;;;;;;;9.93;4.50;;;;;;;10.10;56.82;98107.59;5033225;28;20187;-71
2022/09/22 02:08:34;;;;;;;7.03;4.30;;;;;;;10.12;56.66;98102.22;5033039;28;20422;-72
2022/09/22 02:11:03;;;;;;;4.80;4.20;;;;;;;10.04;56.43;98102.03;5043042;28;20430;-70
2022/09/22 02:13:28;;;;;;;4.40;3.57;;;;;;;9.97;56.78;98097.28;5038820;28;20436;-71
2022/09/22 02:15:59;;;;;;;5.63;4.27;;;;;;;9.99;56.53;98098.00;5039617;28;20520;-71
2022/09/22 02:18:29;;;;;;;5.50;3.90;;;;;;;10.04;56.66;98096.81;5040660;28;20197;-71
2022/09/22 02:20:56;;;;;;;4.70;4.10;;;;;;;9.98;56.93;98088.47;5032555;28;20438;-70
2022/09/22 02:23:21;;;;;;;4.87;3.73;;;;;;;10.06;57.08;98094.88;5041256;28;20515;-70
2022/09/22 02:25:48;;;;;;;5.53;4.20;;;;;;;10.09;56.67;98095.47;5041508;28;20501;-70
2022/09/22 02:28:15;;;;;;;5.17;4.13;;;;;;;10.09;56.42;98086.75;5041242;28;20265;-71
2022/09/22 02:30:42;;;;;;;4.23;3.63;;;;;;;10.06;56.52;98087.03;5042363;28;20433;-73
2022/09/22 02:33:08;;;;;;;6.43;4.67;;;;;;;10.00;56.63;98088.38;5036172;28;20442;-72
2022/09/22 02:35:36;;;;;;;4.80;4.27;;;;;;;9.87;56.45;98080.69;5043578;28;20449;-71
2022/09/22 02:38:16;;;;;;;4.33;3.93;;;;;;;9.84;56.70;98087.00;5040151;28;20449;-71
2022/09/22 02:41:04;;;;;;;5.40;4.45;;;;;;;9.82;56.65;98080.25;5012664;28;21001;-72
2022/09/22 02:43:34;;;;;;;4.17;3.73;;;;;;;9.87;56.63;98077.25;5035580;28;20464;-72
2022/09/22 02:46:26;;;;;;;4.37;3.97;;;;;;;9.84;56.60;98075.69;5044194;28;20452;-71
2022/09/22 02:48:55;;;;;;;5.90;3.93;;;;;;;9.86;56.81;98075.59;5029580;28;20440;-71
2022/09/22 02:51:21;;;;;;;5.00;3.97;;;;;;;9.83;56.64;98077.50;5040496;28;20797;-72
2022/09/22 02:53:46;;;;;;;4.60;4.00;;;;;;;9.78;56.51;98071.78;5036280;28;20425;-71
2022/09/22 02:56:12;;;;;;;5.73;4.20;;;;;;;9.75;56.87;98089.53;5044096;28;20187;-72
2022/09/22 02:58:37;;;;;;;4.23;3.73;;;;;;;9.74;56.98;98082.66;5039236;28;20543;-71
2022/09/22 03:01:03;;;;;;;11.47;4.00;;;;;;;9.67;56.82;98083.16;5029634;28;20311;-71
2022/09/22 03:03:28;;;;;;;5.30;3.83;;;;;;;9.60;56.97;98079.38;5040701;28;20669;-70
2022/09/22 03:05:54;;;;;;;4.53;4.13;;;;;;;9.61;56.85;98082.84;5035404;28;20183;-70
2022/09/22 03:08:19;;;;;;;4.70;4.20;;;;;;;9.65;56.78;98085.06;5041991;28;20764;-72
2022/09/22 03:10:45;;;;;;;5.13;4.10;;;;;;;9.67;57.17;98083.16;5041970;28;20179;-70
2022/09/22 03:13:10;;;;;;;7.13;4.37;;;;;;;9.69;56.80;98075.16;5038701;28;20207;-71
2022/09/22 03:15:36;;;;;;;4.23;3.80;;;;;;;9.66;56.89;98075.41;5041180;28;20213;-71
2022/09/22 03:18:02;;;;;;;5.67;4.27;;;;;;;9.64;56.81;98069.50;5033175;28;20195;-71
2022/09/22 03:20:27;;;;;;;4.63;3.77;;;;;;;9.58;56.74;98078.66;5044153;28;20726;-71
2022/09/22 03:22:53;;;;;;;4.90;4.07;;;;;;;9.56;56.79;98083.22;5041183;28;20311;-71
2022/09/22 03:25:18;;;;;;;4.40;4.00;;;;;;;9.58;56.90;98067.38;5033694;28;20557;-69
2022/09/22 03:27:44;;;;;;;5.00;3.97;;;;;;;9.57;56.41;98077.03;5044248;28;20188;-72
2022/09/22 03:30:10;;;;;;;4.83;3.70;;;;;;;9.48;56.46;98062.88;5027194;28;20276;-72
2022/09/22 03:32:35;;;;;;;4.87;4.40;;;;;;;9.45;56.97;98068.38;5032483;28;20242;-72
2022/09/22 03:35:00;;;;;;;7.03;4.20;;;;;;;9.45;57.40;98063.13;5022017;28;20479;-72
2022/09/22 03:37:26;;;;;;;6.40;4.00;;;;;;;9.47;57.14;98069.06;5039721;28;20190;-72
2022/09/22 03:39:51;;;;;;;6.30;4.40;;;;;;;9.46;57.10;98066.56;5040475;28;20278;-71
2022/09/22 03:42:17;;;;;;;5.37;3.70;;;;;;;9.40;57.45;98065.28;5037997;28;20223;-72
2022/09/22 03:44:42;;;;;;;5.30;4.60;;;;;;;9.42;57.23;98065.16;5035489;28;20287;-72
2022/09/22 03:47:08;;;;;;;5.90;5.10;;;;;;;9.38;57.24;98064.59;5037259;28;20184;-71
2022/09/22 03:49:33;;;;;;;7.47;4.73;;;;;;;9.32;57.53;98058.06;5047628;28;20559;-71
2022/09/22 03:51:59;;;;;;;6.80;4.70;;;;;;;9.37;57.70;98060.31;5029517;28;20223;-71
2022/09/22 03:54:24;;;;;;;6.17;4.93;;;;;;;9.22;57.36;98063.19;5047267;28;20186;-71
2022/09/22 03:56:50;;;;;;;5.03;4.53;;;;;;;9.18;58.13;98061.78;5041071;28;20195;-72
2022/09/22 03:59:16;;;;;;;5.10;4.60;;;;;;;9.17;57.45;98054.06;5039193;28;20186;-71
2022/09/22 04:01:41;;;;;;;6.00;5.40;;;;;;;9.18;57.59;98055.72;5033195;28;20203;-71
2022/09/22 04:04:07;;;;;;;7.30;6.60;;;;;;;9.15;57.88;98056.78;5041255;28;20434;-72
2022/09/22 04:06:33;;;;;;;7.80;7.10;;;;;;;9.16;57.71;98055.81;5043452;28;20183;-72
2022/09/22 04:09:00;;;;;;;9.47;6.40;;;;;;;9.22;57.86;98055.34;5037235;28;20183;-72
2022/09/22 04:11:26;;;;;;;7.37;6.10;;;;;;;9.20;57.93;98056.41;5043167;28;20666;-71
2022/09/22 04:13:51;;;;;;;8.37;5.07;;;;;;;9.19;57.46;98046.94;5040791;28;20569;-72
2022/09/22 04:16:17;;;;;;;5.20;4.70;;;;;;;9.26;57.47;98053.31;5037875;28;20430;-70
2022/09/22 04:18:42;;;;;;;6.03;4.30;;;;;;;9.30;57.19;98051.28;5036666;28;20235;-71
2022/09/22 04:21:08;;;;;;;5.47;4.57;;;;;;;9.28;57.39;98048.78;5036753;28;20206;-70
2022/09/22 04:23:34;;;;;;;5.63;3.90;;;;;;;9.22;57.58;98046.66;5043303;28;20179;-71
2022/09/22 04:26:00;;;;;;;7.70;4.60;;;;;;;9.20;57.74;98048.56;5046366;28;20432;-70
2022/09/22 04:28:27;;;;;;;5.20;4.60;;;;;;;9.22;57.11;98051.88;5039059;28;20429;-69
2022/09/22 04:30:52;;;;;;;4.27;3.57;;;;;;;9.17;57.20;98048.81;5040308;28;21320;-71
2022/09/22 04:33:18;;;;;;;5.00;4.07;;;;;;;9.10;57.32;98058.09;5040350;28;20443;-71
2022/09/22 04:35:43;;;;;;;6.90;4.70;;;;;;;9.13;57.75;98061.31;5036036;28;20285;-70
2022/09/22 04:38:09;;;;;;;8.03;4.30;;;;;;;9.16;57.27;98057.63;5032531;28;20263;-71
2022/09/22 04:40:35;;;;;;;7.30;4.50;;;;;;;9.17;57.15;98064.53;5033291;28;20552;-70
2022/09/22 04:43:00;;;;;;;9.90;4.77;;;;;;;9.17;57.01;98061.91;5037960;28;20207;-71
2022/09/22 04:45:26;;;;;;;6.87;4.50;;;;;;;9.16;57.34;98065.47;5042553;28;20305;-71
2022/09/22 04:47:52;;;;;;;8.00;4.10;;;;;;;9.02;57.56;98063.94;5013872;28;20192;-71
2022/09/22 04:50:20;;;;;;;7.03;4.20;;;;;;;9.01;57.11;98065.72;5019116;28;20654;-71
2022/09/22 04:52:46;;;;;;;9.10;5.40;;;;;;;8.98;57.60;98052.91;5027931;28;20437;-71
2022/09/22 04:55:12;;;;;;;6.67;4.77;;;;;;;8.91;57.80;98056.97;5031104;28;20431;-71
2022/09/22 04:57:38;;;;;;;6.43;5.17;;;;;;;8.89;58.24;98057.06;5026010;28;20936;-71
2022/09/22 05:00:04;;;;;;;7.00;5.40;;;;;;;8.88;57.88;98055.41;5038042;28;20200;-71
2022/09/22 05:02:29;;;;;;;9.00;6.10;;;;;;;8.89;57.99;98053.63;5026805;28;20215;-73
2022/09/22 05:04:55;;;;;;;8.27;5.73;;;;;;;8.96;57.86;98056.59;5036159;28;20484;-70
2022/09/22 05:07:20;;;;;;;6.70;5.57;;;;;;;8.93;57.59;98057.69;5028412;28;20185;-70
2022/09/22 05:09:46;;;;;;;7.93;4.70;;;;;;;8.97;58.20;98055.66;5035764;28;20289;-73
2022/09/22 05:12:12;;;;;;;10.50;7.07;;;;;;;8.95;57.68;98052.31;5028564;28;20690;-69
2022/09/22 05:14:37;;;;;;;10.17;7.60;;;;;;;8.96;57.81;98057.41;5022191;28;20271;-69
2022/09/22 05:17:03;;;;;;;7.63;6.60;;;;;;;8.93;58.09;98057.69;5029415;28;20274;-71
2022/09/22 05:19:28;;;;;;;7.97;6.23;;;;;;;8.87;57.70;98068.59;5031809;28;20218;-70
2022/09/22 05:21:54;;;;;;;6.77;5.33;;;;;;;8.87;57.83;98063.38;5036678;28;20594;-72
2022/09/22 05:24:19;;;;;;;6.60;5.80;;;;;;;8.92;58.07;98063.84;5029138;28;20184;-70
2022/09/22 05:26:45;;;;;;;5.83;5.03;;;;;;;8.93;57.58;98072.50;5040196;28;20279;-73
2022/09/22 05:29:10;;;;;;;6.37;5.00;;;;;;;8.96;58.36;98065.25;5037070;28;20183;-70
2022/09/22 05:31:36;;;;;;;9.03;6.10;;;;;;;8.97;57.88;98073.94;5019337;28;20226;-71
2022/09/22 05:34:01;;;;;;;9.43;6.70;;;;;;;9.00;57.31;98074.53;5024150;28;20275;-72
2022/09/22 05:36:27;;;;;;;15.20;9.70;;;;;;;9.17;57.28;98074.97;5021928;28;20199;-71
2022/09/22 05:38:52;;;;;;;14.63;9.97;;;;;;;9.55;56.86;98073.69;5026762;28;20231;-69
2022/09/22 05:41:18;;;;;;;15.87;10.03;;;;;;;9.97;55.73;98078.97;5025462;28;20216;-72
2022/09/22 05:43:43;;;;;;;14.50;9.13;;;;;;;10.34;54.85;98071.59;5021012;28;20717;-71
2022/09/22 05:46:08;;;;;;;14.27;9.00;;;;;;;10.41;54.46;98078.03;5027454;28;20191;-71
2022/09/22 05:48:34;;;;;;;16.10;7.07;;;;;;;10.45;54.69;98068.97;5021692;28;20215;-71
2022/09/22 05:51:00;;;;;;;10.50;7.73;;;;;;;10.42;54.58;98077.06;5026726;28;20274;-71
2022/09/22 05:53:26;;;;;;;11.67;8.67;;;;;;;10.44;54.92;98070.72;5023304;28;20610;-71
2022/09/22 05:55:51;;;;;;;12.97;9.00;;;;;;;10.35;55.58;98075.88;5024111;28;20221;-72
2022/09/22 05:58:17;;;;;;;24.20;9.20;;;;;;;10.42;56.29;98074.44;5017677;28;20426;-72
2022/09/22 06:00:42;;;;;;;11.57;8.87;;;;;;;10.65;56.34;98076.91;5019944;28;20188;-71
2022/09/22 06:03:08;;;;;;;10.20;7.97;;;;;;;10.81;56.33;98077.25;5023731;28;20247;-71
2022/09/22 06:05:33;;;;;;;11.07;8.10;;;;;;;10.96;56.08;98075.09;5015143;28;20188;-72
2022/09/22 06:08:02;;;;;;;14.70;9.80;;;;;;;11.12;55.92;98079.81;5025003;28;20191;-72
2022/09/22 06:10:32;;;;;;;13.70;9.60;;;;;;;11.24;56.11;98082.31;5024640;28;20616;-71
2022/09/22 06:13:02;;;;;;;16.17;9.07;;;;;;;11.35;55.79;98080.44;5020330;28;20477;-70
2022/09/22 06:15:29;;;;;;;12.93;7.70;;;;;;;11.42;55.55;98080.72;5026337;28;20449;-70
2022/09/22 06:17:55;;;;;;;11.47;7.80;;;;;;;11.52;55.06;98085.97;5016272;28;20486;-71
2022/09/22 06:20:21;;;;;;;13.33;8.23;;;;;;;11.59;55.04;98081.00;5022933;28;20434;-71
2022/09/22 06:22:47;;;;;;;12.27;8.50;;;;;;;11.72;54.99;98078.91;5018946;28;20260;-71
2022/09/22 06:25:14;;;;;;;17.60;7.80;;;;;;;11.80;55.27;98084.31;5023984;28;20914;-71
2022/09/22 06:27:39;;;;;;;22.43;19.30;;;;;;;11.91;55.17;98080.72;5019897;28;20454;-71
2022/09/22 06:30:08;;;;;;;33.87;25.57;;;;;;;12.03;55.15;98083.25;5015642;28;20784;-73
2022/09/22 06:32:35;;;;;;;27.33;20.00;;;;;;;12.10;55.20;98084.34;5023633;28;20206;-71
2022/09/22 06:35:01;;;;;;;20.20;13.37;;;;;;;12.22;55.08;98082.38;5016997;28;20471;-71
2022/09/22 06:37:27;;;;;;;14.90;10.90;;;;;;;12.28;54.92;98077.41;5027023;28;20461;-70
2022/09/22 06:39:53;;;;;;;15.93;9.60;;;;;;;12.41;54.80;98078.88;5030991;28;20799;-71
2022/09/22 06:42:18;;;;;;;15.90;8.87;;;;;;;12.56;54.17;98066.09;5023771;28;20488;-72
2022/09/22 06:44:44;;;;;;;12.60;8.07;;;;;;;12.68;54.08;98077.25;5027603;28;20188;-69
2022/09/22 06:47:10;;;;;;;12.50;8.10;;;;;;;12.82;53.75;98062.81;5025517;28;20184;-72
2022/09/22 06:49:35;;;;;;;15.23;8.10;;;;;;;12.95;53.39;98073.81;5034252;28;20187;-72
2022/09/22 06:52:01;;;;;;;12.53;8.13;;;;;;;13.06;53.42;98072.78;5026575;28;20735;-71
2022/09/22 06:54:26;;;;;;;9.20;7.40;;;;;;;13.18;53.59;98070.78;5031270;28;20593;-70
2022/09/22 06:56:52;;;;;;;15.33;7.20;;;;;;;13.32;53.99;98059.75;5023154;28;20196;-72
2022/09/22 06:59:17;;;;;;;12.27;7.53;;;;;;;13.42;54.16;98059.69;5018125;28;20185;-71
2022/09/22 07:01:43;;;;;;;12.10;6.20;;;;;;;13.58;54.02;98069.59;5022985;28;20215;-72
2022/09/22 07:04:10;;;;;;;11.23;7.40;;;;;;;13.65;52.60;98061.91;5028984;28;20377;-72
2022/09/22 07:06:36;;;;;;;7.47;5.63;;;;;;;13.69;51.80;98059.81;5026368;28;20426;-72
2022/09/22 07:09:02;;;;;;;7.73;5.43;;;;;;;13.73;51.90;98051.44;5029617;28;21017;-71
2022/09/22 07:11:29;;;;;;;12.37;5.97;;;;;;;13.83;51.95;98054.00;5035739;28;20223;-72
2022/09/22 07:13:55;;;;;;;7.57;5.70;;;;;;;13.95;51.92;98055.41;5024828;28;20437;-71
2022/09/22 07:16:22;;;;;;;5.60;5.00;;;;;;;14.10;51.45;98057.50;5028465;28;20423;-74
2022/09/22 07:18:50;;;;;;;11.50;5.50;;;;;;;14.23;51.07;98051.81;5027965;28;20559;-71
2022/09/22 07:21:21;;;;;;;8.27;5.63;;;;;;;14.37;52.00;98050.41;5034506;28;20813;-70
2022/09/22 07:23:48;;;;;;;7.97;5.73;;;;;;;14.41;51.42;98051.75;5036725;28;20457;-70
2022/09/22 07:26:17;;;;;;;15.10;6.17;;;;;;;14.48;51.31;98050.16;5033969;28;20469;-72
2022/09/22 07:28:43;;;;;;;9.43;5.17;;;;;;;14.69;51.11;98051.59;5030436;28;20433;-72
2022/09/22 07:31:13;;;;;;;7.87;5.50;;;;;;;14.79;50.15;98049.66;5026011;28;20415;-71
2022/09/22 07:33:41;;;;;;;7.37;5.20;;;;;;;14.86;49.36;98048.06;5036613;28;20568;-72
2022/09/22 07:36:14;;;;;;;7.80;4.73;;;;;;;14.93;48.72;98053.53;5034082;28;20499;-69
2022/09/22 07:38:42;;;;;;;10.40;4.70;;;;;;;15.04;49.14;98050.59;5035267;28;20487;-70
2022/09/22 07:41:10;;;;;;;8.80;4.50;;;;;;;15.13;49.19;98054.06;5035383;28;20432;-71
2022/09/22 07:43:37;;;;;;;5.83;4.33;;;;;;;15.22;49.11;98052.28;5036254;28;20913;-72
2022/09/22 07:46:03;;;;;;;6.80;4.23;;;;;;;15.44;49.48;98057.91;5028075;28;20419;-70
2022/09/22 07:48:44;;;;;;;6.30;3.97;;;;;;;15.56;48.91;98059.28;5025610;28;20906;-72
2022/09/22 07:51:18;;;;;;;9.87;4.57;;;;;;;15.69;47.29;98064.06;5031860;28;20194;-73
2022/09/22 07:53:46;;;;;;;10.27;3.70;;;;;;;15.85;48.05;98059.81;5036432;28;20437;-72
2022/09/22 07:56:13;;;;;;;11.13;4.17;;;;;;;16.02;47.33;98058.81;5032518;28;20913;-70
2022/09/22 07:58:49;;;;;;;4.83;4.17;;;;;;;16.21;47.30;98052.34;5026137;28;20422;-71
2022/09/22 08:01:15;;;;;;;10.83;4.10;;;;;;;16.36;47.08;98049.03;5023266;28;20553;-71
2022/09/22 08:03:41;;;;;;;11.60;4.73;;;;;;;16.59;46.67;98038.56;5033982;28;20903;-72
2022/09/22 08:06:11;;;;;;;8.53;5.10;;;;;;;16.74;47.02;98042.16;5033514;28;20422;-71
2022/09/22 08:08:38;;;;;;;10.80;3.77;;;;;;;17.04;45.63;98041.53;5035067;28;20230;-71
2022/09/22 08:11:05;;;;;;;5.10;3.67;;;;;;;17.02;44.79;98039.06;5033170;28;20442;-70
2022/09/22 08:13:33;;;;;;;6.00;3.40;;;;;;;17.34;44.55;98052.28;5022476;28;20433;-71
2022/09/22 08:15:58;;;;;;;6.17;3.57;;;;;;;17.57;43.92;98052.31;5033025;28;20426;-71
2022/09/22 08:18:24;;;;;;;4.63;4.23;;;;;;;17.85;42.57;98043.81;5032460;28;20936;-71
2022/09/22 08:20:50;;;;;;;6.53;3.13;;;;;;;18.06;42.23;98034.38;5036763;28;20198;-71
2022/09/22 08:23:15;;;;;;;4.83;2.93;;;;;;;18.26;41.20;98037.34;5032711;28;20453;-71
2022/09/22 08:25:41;;;;;;;5.90;3.00;;;;;;;18.36;40.52;98037.09;5032945;28;20662;-70
2022/09/22 08:28:07;;;;;;;3.67;2.60;;;;;;;18.52;41.09;98036.91;5032052;28;20559;-71
2022/09/22 08:30:34;;;;;;;8.97;2.83;;;;;;;18.73;40.05;98035.34;5032635;28;20472;-70
2022/09/22 08:33:00;;;;;;;3.57;2.70;;;;;;;18.88;39.53;98028.19;5032858;28;20204;-71
2022/09/22 08:35:26;;;;;;;4.43;2.50;;;;;;;19.18;39.35;98033.44;5032397;28;20427;-71
2022/09/22 08:37:51;;;;;;;3.20;2.30;;;;;;;19.38;37.99;98032.84;5034453;28;20461;-71
2022/09/22 08:40:22;;;;;;;4.90;2.20;;;;;;;19.44;37.42;98029.44;5037189;28;20422;-73
2022/09/22 08:42:51;;;;;;;3.57;2.37;;;;;;;19.65;37.00;98022.50;5036917;28;20372;-71
2022/09/22 08:45:28;;;;;;;3.43;2.50;;;;;;;19.78;37.19;98030.56;5030386;28;20426;-70
2022/09/22 08:53:48;;;;;;;5.63;1.90;;;;;;;20.25;36.15;98024.81;5024306;28;20421;-70
2022/09/22 08:56:20;;;;;;;5.30;2.47;;;;;;;20.33;35.82;98024.66;5032198;28;20509;-72
2022/09/22 08:59:00;;;;;;;2.80;2.47;;;;;;;20.55;35.62;98032.56;5025228;28;20446;-72
2022/09/22 09:01:35;;;;;;;2.47;2.07;;;;;;;20.55;34.47;98032.56;5023293;28;20470;-71
2022/09/22 09:04:12;;;;;;;4.43;2.10;;;;;;;20.67;35.52;98033.66;5032676;28;20418;-72
2022/09/22 09:06:50;;;;;;;3.20;2.20;;;;;;;20.70;35.12;98030.59;5023981;28;20422;-71
2022/09/22 09:09:44;;;;;;;2.23;2.00;;;;;;;20.91;34.79;98025.38;5031156;28;20426;-71
2022/09/22 09:12:40;;;;;;;2.23;2.03;;;;;;;21.13;35.52;98024.22;5028674;28;20493;-72
2022/09/22 09:15:23;;;;;;;2.80;1.90;;;;;;;21.34;34.56;98030.47;5028414;28;20439;-71
2022/09/22 09:17:50;;;;;;;2.30;1.93;;;;;;;21.43;34.27;98026.56;5029743;28;20793;-72
2022/09/22 09:20:16;;;;;;;2.13;1.53;;;;;;;21.48;33.58;98034.78;5033334;28;20469;-72
2022/09/22 09:23:02;;;;;;;2.63;1.67;;;;;;;21.79;34.38;98029.94;5034034;28;20470;-71
2022/09/22 09:25:38;;;;;;;3.20;1.67;;;;;;;21.96;33.42;98026.84;5031710;28;20420;-71
2022/09/22 09:28:06;;;;;;;2.23;2.03;;;;;;;22.01;32.69;98024.38;5026797;28;20422;-71
2022/09/22 09:30:54;;;;;;;2.10;1.77;;;;;;;21.91;32.26;98022.97;5022579;28;20424;-70
2022/09/22 09:33:27;;;;;;;1.80;1.70;;;;;;;21.28;33.27;98021.41;5031120;28;20446;-72
2022/09/22 09:35:53;;;;;;;1.50;1.30;;;;;;;21.48;33.44;98020.63;5030321;28;20455;-71
2022/09/22 09:38:54;;;;;;;2.40;1.57;;;;;;;21.85;32.69;98015.75;5033115;28;20906;-71
2022/09/22 09:41:22;;;;;;;2.30;2.03;;;;;;;21.24;32.86;98017.50;5036817;28;20203;-71
2022/09/22 09:43:50;;;;;;;3.87;1.43;;;;;;;21.61;32.90;98019.88;5028571;28;20445;-71
2022/09/22 09:46:33;;;;;;;3.17;1.60;;;;;;;21.84;31.90;98016.78;5029853;28;20431;-75
2022/09/22 09:49:08;;;;;;;1.43;1.30;;;;;;;21.74;32.21;98021.72;5031713;28;20840;-71
2022/09/22 09:51:36;;;;;;;2.00;1.50;;;;;;;22.05;32.66;98014.94;5035440;28;20438;-71
2022/09/22 09:54:05;;;;;;;1.70;1.30;;;;;;;21.84;32.16;98024.78;5030162;28;20945;-70
2022/09/22 09:56:31;;;;;;;1.60;1.07;;;;;;;22.07;31.36;98007.53;5026459;28;20496;-71
2022/09/22 10:01:47;;;;;;;2.20;1.40;;;;;;;22.29;32.03;98012.66;5026548;28;20482;-71
2022/09/22 10:04:37;;;;;;;1.60;1.50;;;;;;;22.63;32.17;98016.09;5029343;28;20430;-70
2022/09/22 10:07:12;;;;;;;2.00;1.40;;;;;;;22.89;30.58;98014.34;5031058;28;20435;-70
2022/09/22 10:09:38;;;;;;;1.93;1.37;;;;;;;22.97;30.96;98000.72;5031023;28;20425;-72
2022/09/22 10:12:04;;;;;;;1.70;1.60;;;;;;;23.11;31.51;98002.31;5041132;28;20528;-72
2022/09/22 10:14:33;;;;;;;1.67;1.57;;;;;;;23.17;30.82;97997.97;5030645;28;20549;-70
2022/09/22 10:16:58;;;;;;;3.30;1.60;;;;;;;23.38;30.34;98004.03;5030563;28;20183;-70
2022/09/22 10:19:29;;;;;;;1.40;1.30;;;;;;;23.46;30.56;97993.09;5038682;28;20796;-71
2022/09/22 10:22:25;;;;;;;2.07;1.90;;;;;;;23.73;30.81;98001.72;5034969;28;20215;-71
2022/09/22 10:25:02;;;;;;;1.50;1.40;;;;;;;23.93;30.67;97993.53;5022671;28;20446;-71
2022/09/22 10:27:29;;;;;;;6.83;1.77;;;;;;;23.96;29.84;97994.97;5028666;28;20430;-71
2022/09/22 10:30:11;;;;;;;1.60;1.50;;;;;;;23.96;30.02;97994.97;5030968;28;20529;-70
2022/09/22 10:32:36;;;;;;;2.03;1.57;;;;;;;24.21;29.79;97991.44;5028265;28;20526;-71
2022/09/22 10:35:28;;;;;;;2.90;1.60;;;;;;;24.15;29.30;97987.78;5029175;28;20529;-71
2022/09/22 10:38:00;;;;;;;1.87;1.60;;;;;;;24.08;29.42;97993.22;5029383;28;20187;-70
2022/09/22 10:40:26;;;;;;;2.73;1.90;;;;;;;23.96;28.83;97989.63;5027389;28;20925;-72
2022/09/22 10:42:54;;;;;;;2.80;1.57;;;;;;;24.01;29.10;97984.44;5030684;28;20516;-71
2022/09/22 10:45:47;;;;;;;1.70;1.33;;;;;;;24.14;29.54;97977.31;5028876;28;20179;-71
2022/09/22 10:48:32;;;;;;;1.83;1.63;;;;;;;24.22;29.36;97979.69;5026744;28;20940;-72
2022/09/22 10:51:09;;;;;;;1.93;1.50;;;;;;;24.06;28.50;97979.25;5029566;28;20945;-70
2022/09/22 10:54:00;;;;;;;3.77;1.20;;;;;;;24.07;28.85;97978.19;5028341;28;20414;-72
2022/09/22 10:56:36;;;;;;;2.20;1.37;;;;;;;24.10;29.42;97970.75;5025453;28;20414;-71
2022/09/22 10:59:23;;;;;;;1.97;1.77;;;;;;;24.21;29.10;97981.56;5028744;28;20426;-71
2022/09/22 11:02:19;;;;;;;1.47;1.13;;;;;;;24.21;28.04;97978.88;5018876;28;20473;-70
2022/09/22 11:04:55;;;;;;;1.50;1.13;;;;;;;24.44;29.02;97979.28;5023893;28;20430;-72
2022/09/22 11:13:33;;;;;;;1.03;0.93;;;;;;;24.54;28.56;97971.53;5025053;28;20530;-72
2022/09/22 11:16:21;;;;;;;2.30;0.90;;;;;;;24.54;26.91;97974.22;5027803;28;20417;-73
2022/09/22 11:18:54;;;;;;;3.23;1.13;;;;;;;24.68;27.80;97967.66;5027831;28;20770;-71
2022/09/22 11:21:46;;;;;;;1.20;0.90;;;;;;;24.71;27.27;97957.53;5033980;28;20498;-72
2022/09/22 11:24:17;;;;;;;1.90;1.20;;;;;;;24.90;27.29;97961.84;5028698;28;20517;-72
2022/09/22 11:26:58;;;;;;;1.77;1.00;;;;;;;24.69;27.47;97952.41;5029405;28;20414;-72
2022/09/22 11:29:52;;;;;;;6.20;1.30;;;;;;;24.95;26.96;97943.19;5028563;28;20433;-73
2022/09/22 11:33:03;;;;;;;1.10;1.00;;;;;;;25.19;27.53;97945.13;5032063;28;20492;-72
2022/09/22 11:36:07;;;;;;;1.20;0.83;;;;;;;25.37;27.01;97933.50;5025607;28;20450;-73
2022/09/22 11:38:57;;;;;;;1.50;1.10;;;;;;;25.60;27.04;97938.94;5030595;28;20418;-71
2022/09/22 11:41:37;;;;;;;1.03;0.93;;;;;;;25.62;26.53;97944.09;5037660;28;20454;-72
2022/09/22 11:44:24;;;;;;;2.70;1.00;;;;;;;25.44;26.31;97931.59;5033186;28;20883;-70
2022/09/22 11:47:02;;;;;;;1.23;0.93;;;;;;;25.30;26.30;97936.28;5026726;28;21003;-70
2022/09/22 11:49:39;;;;;;;2.17;1.10;;;;;;;25.29;26.18;97940.03;5032296;28;20429;-72
2022/09/22 11:52:42;;;;;;;3.13;1.00;;;;;;;25.47;26.58;97925.75;5028222;28;20441;-72
2022/09/22 11:55:29;;;;;;;3.63;1.30;;;;;;;25.49;26.53;97931.69;5031313;28;20431;-71
2022/09/22 11:57:58;;;;;;;1.80;1.00;;;;;;;25.47;25.83;97930.31;5030969;28;20418;-72
2022/09/22 12:00:24;;;;;;;1.30;1.00;;;;;;;25.46;24.97;97924.09;5031934;28;20514;-73
2022/09/22 12:02:56;;;;;;;2.60;1.03;;;;;;;25.38;25.42;97921.75;5030402;28;20565;-71
2022/09/22 12:05:42;;;;;;;1.80;1.20;;;;;;;25.47;26.12;97931.09;5031964;28;20214;-73
2022/09/22 12:08:13;;;;;;;1.40;0.90;;;;;;;25.64;25.98;97920.53;5031596;28;20418;-72